sensor_id;sensor_type;location;lat;lon;timestamp;pressure;altitude;pressure_sealevel;temperature;humidity
38620;BME280;24376;51.986;4.662;2022-08-21T00:01:40;103226.81;;;14.64;100.00
38620;BME280;24376;51.986;4.662;2022-08-21T00:04:06;103217.94;;;14.62;100.00
38620;BME280;24376;51.986;4.662;2022-08-21T00:06:31;103210.81;;;14.61;100.00
38620;BME280;24376;51.986;4.662;2022-08-21T00:08:58;103225.63;;;14.57;100.00
38620;BME280;24376;51.986;4.662;2022-08-21T00:11:23;103214.91;;;14.54;100.00
38620;BME280;24376;51.986;4.662;2022-08-21T00:13:49;103214.63;;;14.48;100.00
38620;BME280;24376;51.986;4.662;2022-08-21T00:16:14;103219.63;;;14.44;100.00
38620;BME280;24376;51.986;4.662;2022-08-21T00:18:39;103216.69;;;14.37;100.00
38620;BME280;24376;51.986;4.662;2022-08-21T00:21:05;103210.41;;;14.34;100.00
38620;BME280;24376;51.986;4.662;2022-08-21T00:23:32;103218.13;;;14.31;100.00
38620;BME280;24376;51.986;4.662;2022-08-21T00:25:58;103203.16;;;14.30;100.00
38620;BME280;24376;51.986;4.662;2022-08-21T00:28:23;103209.31;;;14.30;100.00
38620;BME280;24376;51.986;4.662;2022-08-21T00:30:48;103202.13;;;14.26;100.00
38620;BME280;24376;51.986;4.662;2022-08-21T00:33:13;103208.97;;;14.23;100.00
38620;BME280;24376;51.986;4.662;2022-08-21T00:35:39;103207.16;;;14.22;100.00
38620;BME280;24376;51.986;4.662;2022-08-21T00:38:06;103206.16;;;14.20;100.00
38620;BME280;24376;51.986;4.662;2022-08-21T00:40:38;103199.94;;;14.18;100.00
38620;BME280;24376;51.986;4.662;2022-08-21T00:43:05;103196.31;;;14.16;100.00
38620;BME280;24376;51.986;4.662;2022-08-21T00:45:31;103183.06;;;14.14;100.00
38620;BME280;24376;51.986;4.662;2022-08-21T00:47:57;103187.34;;;14.12;100.00
38620;BME280;24376;51.986;4.662;2022-08-21T00:50:22;103181.19;;;14.11;100.00
38620;BME280;24376;51.986;4.662;2022-08-21T00:52:50;103186.47;;;14.11;100.00
38620;BME280;24376;51.986;4.662;2022-08-21T00:55:16;103167.78;;;14.07;100.00
38620;BME280;24376;51.986;4.662;2022-08-21T00:57:43;103177.28;;;14.03;100.00
38620;BME280;24376;51.986;4.662;2022-08-21T01:00:11;103179.81;;;14.02;100.00
38620;BME280;24376;51.986;4.662;2022-08-21T01:02:37;103181.56;;;14.01;100.00
38620;BME280;24376;51.986;4.662;2022-08-21T01:05:02;103186.00;;;14.02;100.00
38620;BME280;24376;51.986;4.662;2022-08-21T01:07:28;103180.72;;;14.02;100.00
38620;BME280;24376;51.986;4.662;2022-08-21T01:09:53;103186.53;;;13.95;100.00
38620;BME280;24376;51.986;4.662;2022-08-21T01:12:18;103191.66;;;13.92;100.00
38620;BME280;24376;51.986;4.662;2022-08-21T01:14:44;103177.47;;;13.90;100.00
38620;BME280;24376;51.986;4.662;2022-08-21T01:17:09;103179.16;;;13.88;100.00
38620;BME280;24376;51.986;4.662;2022-08-21T01:19:36;103181.91;;;13.91;100.00
38620;BME280;24376;51.986;4.662;2022-08-21T01:22:01;103189.16;;;13.95;100.00
38620;BME280;24376;51.986;4.662;2022-08-21T01:24:26;103198.66;;;13.92;100.00
38620;BME280;24376;51.986;4.662;2022-08-21T01:26:52;103211.13;;;13.96;100.00
38620;BME280;24376;51.986;4.662;2022-08-21T01:29:24;103209.41;;;13.96;100.00
38620;BME280;24376;51.986;4.662;2022-08-21T01:31:50;103219.34;;;14.02;100.00
38620;BME280;24376;51.986;4.662;2022-08-21T01:34:15;103220.53;;;14.08;100.00
38620;BME280;24376;51.986;4.662;2022-08-21T01:36:42;103221.06;;;14.01;100.00
38620;BME280;24376;51.986;4.662;2022-08-21T01:39:07;103229.81;;;14.00;100.00
38620;BME280;24376;51.986;4.662;2022-08-21T01:41:32;103248.91;;;13.96;100.00
38620;BME280;24376;51.986;4.662;2022-08-21T01:43:58;103246.19;;;13.95;100.00
38620;BME280;24376;51.986;4.662;2022-08-21T01:46:23;103229.50;;;13.94;100.00
38620;BME280;24376;51.986;4.662;2022-08-21T01:48:48;103234.59;;;13.91;100.00
38620;BME280;24376;51.986;4.662;2022-08-21T01:51:13;103216.94;;;13.89;100.00
38620;BME280;24376;51.986;4.662;2022-08-21T01:53:39;103223.63;;;13.82;100.00
38620;BME280;24376;51.986;4.662;2022-08-21T01:56:05;103219.84;;;13.77;100.00
38620;BME280;24376;51.986;4.662;2022-08-21T01:58:31;103212.53;;;13.71;97.25
38620;BME280;24376;51.986;4.662;2022-08-21T02:00:56;103205.72;;;13.75;92.90
38620;BME280;24376;51.986;4.662;2022-08-21T02:03:21;103208.53;;;13.79;88.62
38620;BME280;24376;51.986;4.662;2022-08-21T02:05:46;103202.25;;;13.76;86.90
38620;BME280;24376;51.986;4.662;2022-08-21T02:08:11;103205.84;;;13.78;85.10
38620;BME280;24376;51.986;4.662;2022-08-21T02:10:37;103191.78;;;13.77;84.75
38620;BME280;24376;51.986;4.662;2022-08-21T02:13:02;103217.22;;;13.77;82.18
38620;BME280;24376;51.986;4.662;2022-08-21T02:15:28;103211.09;;;13.78;80.71
38620;BME280;24376;51.986;4.662;2022-08-21T02:17:55;103214.50;;;13.75;79.61
38620;BME280;24376;51.986;4.662;2022-08-21T02:20:25;103191.78;;;13.77;80.28
38620;BME280;24376;51.986;4.662;2022-08-21T02:22:51;103186.28;;;13.73;80.40
38620;BME280;24376;51.986;4.662;2022-08-21T02:25:17;103202.91;;;13.72;78.35
38620;BME280;24376;51.986;4.662;2022-08-21T02:27:43;103191.09;;;13.64;78.21
38620;BME280;24376;51.986;4.662;2022-08-21T02:30:11;103154.06;;;13.61;79.40
38620;BME280;24376;51.986;4.662;2022-08-21T02:32:37;103191.69;;;13.58;77.69
38620;BME280;24376;51.986;4.662;2022-08-21T02:35:02;103175.31;;;13.47;77.58
38620;BME280;24376;51.986;4.662;2022-08-21T02:37:27;103161.81;;;13.57;77.75
38620;BME280;24376;51.986;4.662;2022-08-21T02:39:53;103171.34;;;13.55;76.63
38620;BME280;24376;51.986;4.662;2022-08-21T02:42:18;103191.50;;;13.55;75.93
38620;BME280;24376;51.986;4.662;2022-08-21T02:44:43;103208.88;;;13.51;74.89
38620;BME280;24376;51.986;4.662;2022-08-21T02:47:08;103184.06;;;13.46;74.98
38620;BME280;24376;51.986;4.662;2022-08-21T02:49:33;103178.09;;;13.50;74.61
38620;BME280;24376;51.986;4.662;2022-08-21T02:51:59;103184.88;;;13.45;74.25
38620;BME280;24376;51.986;4.662;2022-08-21T02:54:24;103191.19;;;13.49;73.41
38620;BME280;24376;51.986;4.662;2022-08-21T02:56:49;103172.69;;;13.47;73.66
38620;BME280;24376;51.986;4.662;2022-08-21T02:59:14;103191.25;;;13.50;73.20
38620;BME280;24376;51.986;4.662;2022-08-21T03:01:40;103218.41;;;13.49;72.24
38620;BME280;24376;51.986;4.662;2022-08-21T03:04:05;103171.63;;;13.44;72.93
38620;BME280;24376;51.986;4.662;2022-08-21T03:06:30;103191.94;;;13.46;72.19
38620;BME280;24376;51.986;4.662;2022-08-21T03:08:55;103200.22;;;13.54;71.54
38620;BME280;24376;51.986;4.662;2022-08-21T03:11:21;103220.63;;;13.58;71.05
38620;BME280;24376;51.986;4.662;2022-08-21T03:13:46;103218.47;;;13.51;71.14
38620;BME280;24376;51.986;4.662;2022-08-21T03:16:11;103160.47;;;13.66;71.09
38620;BME280;24376;51.986;4.662;2022-08-21T03:18:37;103252.69;;;13.67;70.17
38620;BME280;24376;51.986;4.662;2022-08-21T03:21:03;103246.44;;;13.65;70.06
38620;BME280;24376;51.986;4.662;2022-08-21T03:23:28;103208.75;;;13.66;70.27
38620;BME280;24376;51.986;4.662;2022-08-21T03:25:55;103251.84;;;13.68;69.69
38620;BME280;24376;51.986;4.662;2022-08-21T03:28:21;103228.84;;;13.64;69.85
38620;BME280;24376;51.986;4.662;2022-08-21T03:30:48;103250.63;;;13.62;69.37
38620;BME280;24376;51.986;4.662;2022-08-21T03:33:14;103262.06;;;13.62;69.13
38620;BME280;24376;51.986;4.662;2022-08-21T03:35:39;103256.06;;;13.65;69.10
38620;BME280;24376;51.986;4.662;2022-08-21T03:38:05;103208.69;;;13.65;69.41
38620;BME280;24376;51.986;4.662;2022-08-21T03:40:30;103264.63;;;13.61;68.58
38620;BME280;24376;51.986;4.662;2022-08-21T03:42:56;103273.34;;;13.60;68.34
38620;BME280;24376;51.986;4.662;2022-08-21T03:45:21;103217.09;;;13.57;68.65
38620;BME280;24376;51.986;4.662;2022-08-21T03:47:51;103272.84;;;13.50;68.18
38620;BME280;24376;51.986;4.662;2022-08-21T03:50:16;103259.81;;;13.52;68.14
38620;BME280;24376;51.986;4.662;2022-08-21T03:52:42;103251.66;;;13.47;68.12
38620;BME280;24376;51.986;4.662;2022-08-21T03:55:07;103254.22;;;13.46;68.08
38620;BME280;24376;51.986;4.662;2022-08-21T03:57:32;103272.66;;;13.46;67.85
38620;BME280;24376;51.986;4.662;2022-08-21T03:59:57;103270.09;;;13.47;67.77
38620;BME280;24376;51.986;4.662;2022-08-21T04:02:23;103279.97;;;13.51;67.60
38620;BME280;24376;51.986;4.662;2022-08-21T04:04:48;103276.16;;;13.63;67.53
38620;BME280;24376;51.986;4.662;2022-08-21T04:07:13;103318.38;;;13.64;67.34
38620;BME280;24376;51.986;4.662;2022-08-21T04:09:39;103313.81;;;13.62;67.31
38620;BME280;24376;51.986;4.662;2022-08-21T04:12:04;103303.28;;;13.62;67.33
38620;BME280;24376;51.986;4.662;2022-08-21T04:14:30;103356.69;;;13.59;66.90
38620;BME280;24376;51.986;4.662;2022-08-21T04:16:55;103345.84;;;13.53;66.92
38620;BME280;24376;51.986;4.662;2022-08-21T04:19:21;103317.94;;;13.56;66.95
38620;BME280;24376;51.986;4.662;2022-08-21T04:21:46;103334.81;;;13.60;66.83
38620;BME280;24376;51.986;4.662;2022-08-21T04:24:11;103350.59;;;13.60;66.75
38620;BME280;24376;51.986;4.662;2022-08-21T04:26:37;103329.28;;;13.55;66.76
38620;BME280;24376;51.986;4.662;2022-08-21T04:29:03;103362.69;;;13.56;66.59
38620;BME280;24376;51.986;4.662;2022-08-21T04:31:31;103359.25;;;13.57;66.50
38620;BME280;24376;51.986;4.662;2022-08-21T04:33:56;103364.34;;;13.54;66.49
38620;BME280;24376;51.986;4.662;2022-08-21T04:36:21;103372.88;;;13.50;66.45
38620;BME280;24376;51.986;4.662;2022-08-21T04:38:47;103375.69;;;13.53;66.39
38620;BME280;24376;51.986;4.662;2022-08-21T04:41:13;103397.66;;;13.54;66.31
38620;BME280;24376;51.986;4.662;2022-08-21T04:43:38;103382.78;;;13.54;66.36
38620;BME280;24376;51.986;4.662;2022-08-21T04:46:03;103415.19;;;13.53;66.28
38620;BME280;24376;51.986;4.662;2022-08-21T04:48:29;103430.06;;;13.53;66.22
38620;BME280;24376;51.986;4.662;2022-08-21T04:55:50;103474.72;;;13.82;66.08
38620;BME280;24376;51.986;4.662;2022-08-21T04:58:18;103492.56;;;13.88;66.05
38620;BME280;24376;51.986;4.662;2022-08-21T05:00:44;103473.38;;;13.91;66.07
38620;BME280;24376;51.986;4.662;2022-08-21T05:03:10;103454.56;;;13.99;66.13
38620;BME280;24376;51.986;4.662;2022-08-21T05:05:36;103597.31;;;14.08;66.01
38620;BME280;24376;51.986;4.662;2022-08-21T05:08:02;103617.09;;;14.17;65.97
38620;BME280;24376;51.986;4.662;2022-08-21T05:10:27;103640.41;;;14.25;65.95
38620;BME280;24376;51.986;4.662;2022-08-21T05:12:53;103640.66;;;14.30;65.94
38620;BME280;24376;51.986;4.662;2022-08-21T05:15:18;103658.81;;;14.40;65.93
38620;BME280;24376;51.986;4.662;2022-08-21T05:17:44;103641.06;;;14.52;65.93
38620;BME280;24376;51.986;4.662;2022-08-21T05:20:10;103693.97;;;14.72;65.93
38620;BME280;24376;51.986;4.662;2022-08-21T05:22:35;103686.41;;;14.78;65.92
38620;BME280;24376;51.986;4.662;2022-08-21T05:25:00;103676.19;;;14.84;65.92
38620;BME280;24376;51.986;4.662;2022-08-21T05:27:25;103611.63;;;14.94;65.94
38620;BME280;24376;51.986;4.662;2022-08-21T05:29:51;103584.81;;;15.02;65.95
38620;BME280;24376;51.986;4.662;2022-08-21T05:32:16;103562.19;;;15.07;65.95
38620;BME280;24376;51.986;4.662;2022-08-21T05:34:42;103507.31;;;15.18;65.98
38620;BME280;24376;51.986;4.662;2022-08-21T05:37:09;103471.25;;;15.18;65.99
38620;BME280;24376;51.986;4.662;2022-08-21T05:39:35;103387.94;;;15.24;66.02
38620;BME280;24376;51.986;4.662;2022-08-21T05:42:00;103386.63;;;15.33;66.01
38620;BME280;24376;51.986;4.662;2022-08-21T05:47:22;103259.50;;;15.43;66.12
38620;BME280;24376;51.986;4.662;2022-08-21T05:49:47;103261.38;;;15.46;66.11
38620;BME280;24376;51.986;4.662;2022-08-21T05:52:17;103215.91;;;15.53;66.13
38620;BME280;24376;51.986;4.662;2022-08-21T05:54:42;103181.94;;;15.61;66.17
38620;BME280;24376;51.986;4.662;2022-08-21T05:57:08;103130.28;;;15.67;66.29
38620;BME280;24376;51.986;4.662;2022-08-21T05:59:33;103059.84;;;15.66;66.45
38620;BME280;24376;51.986;4.662;2022-08-21T06:01:58;103017.03;;;15.75;66.55
38620;BME280;24376;51.986;4.662;2022-08-21T06:04:23;102923.81;;;15.78;66.87
38620;BME280;24376;51.986;4.662;2022-08-21T06:06:48;102888.91;;;15.86;67.05
38620;BME280;24376;51.986;4.662;2022-08-21T06:09:14;102827.41;;;15.90;67.42
38620;BME280;24376;51.986;4.662;2022-08-21T06:11:39;102767.84;;;16.00;67.77
38620;BME280;24376;51.986;4.662;2022-08-21T06:14:04;102706.28;;;16.03;68.31
38620;BME280;24376;51.986;4.662;2022-08-21T06:16:31;102653.84;;;16.15;68.78
38620;BME280;24376;51.986;4.662;2022-08-21T06:18:56;102594.16;;;16.23;69.47
38620;BME280;24376;51.986;4.662;2022-08-21T06:21:22;102546.75;;;16.29;70.68
38620;BME280;24376;51.986;4.662;2022-08-21T06:23:47;102516.19;;;16.37;72.91
38620;BME280;24376;51.986;4.662;2022-08-21T06:26:13;102467.13;;;16.47;76.84
38620;BME280;24376;51.986;4.662;2022-08-21T06:28:38;102426.72;;;16.53;85.77
38620;BME280;24376;51.986;4.662;2022-08-21T06:31:13;102577.72;;;16.62;69.42
38620;BME280;24376;51.986;4.662;2022-08-21T06:33:40;102589.34;;;16.68;69.96
38620;BME280;24376;51.986;4.662;2022-08-21T06:36:06;102548.28;;;16.81;71.22
38620;BME280;24376;51.986;4.662;2022-08-21T06:38:31;102514.03;;;16.86;73.65
38620;BME280;24376;51.986;4.662;2022-08-21T06:40:56;102486.94;;;16.94;75.73
38620;BME280;24376;51.986;4.662;2022-08-21T06:43:22;102457.13;;;17.01;82.77
38620;BME280;24376;51.986;4.662;2022-08-21T06:45:47;102409.72;;;17.11;100.00
38620;BME280;24376;51.986;4.662;2022-08-21T06:48:15;102380.78;;;17.18;100.00
38620;BME280;24376;51.986;4.662;2022-08-21T06:50:40;102336.84;;;17.26;100.00
38620;BME280;24376;51.986;4.662;2022-08-21T06:53:07;102309.72;;;17.37;100.00
38620;BME280;24376;51.986;4.662;2022-08-21T06:55:33;102287.78;;;17.44;100.00
38620;BME280;24376;51.986;4.662;2022-08-21T06:57:58;102256.25;;;17.56;100.00
38620;BME280;24376;51.986;4.662;2022-08-21T07:00:23;102245.00;;;17.66;100.00
38620;BME280;24376;51.986;4.662;2022-08-21T07:02:49;102202.75;;;17.72;100.00
38620;BME280;24376;51.986;4.662;2022-08-21T07:05:14;102187.91;;;17.80;100.00
38620;BME280;24376;51.986;4.662;2022-08-21T07:07:40;102196.06;;;17.93;100.00
38620;BME280;24376;51.986;4.662;2022-08-21T07:10:05;102188.16;;;17.96;100.00
38620;BME280;24376;51.986;4.662;2022-08-21T07:12:30;102170.44;;;17.92;100.00
38620;BME280;24376;51.986;4.662;2022-08-21T07:14:56;102146.72;;;17.99;100.00
38620;BME280;24376;51.986;4.662;2022-08-21T07:17:21;102132.66;;;18.05;100.00
38620;BME280;24376;51.986;4.662;2022-08-21T07:19:46;102117.75;;;18.13;100.00
38620;BME280;24376;51.986;4.662;2022-08-21T07:22:11;102094.88;;;18.18;100.00
38620;BME280;24376;51.986;4.662;2022-08-21T07:24:38;102080.03;;;18.31;100.00
38620;BME280;24376;51.986;4.662;2022-08-21T07:27:03;102059.84;;;18.44;100.00
38620;BME280;24376;51.986;4.662;2022-08-21T07:29:29;102042.31;;;18.55;100.00
38620;BME280;24376;51.986;4.662;2022-08-21T07:31:54;102009.66;;;18.59;100.00
38620;BME280;24376;51.986;4.662;2022-08-21T07:34:19;101988.66;;;18.76;100.00
38620;BME280;24376;51.986;4.662;2022-08-21T07:36:44;101980.00;;;18.92;100.00
38620;BME280;24376;51.986;4.662;2022-08-21T07:39:10;101981.72;;;18.90;100.00
38620;BME280;24376;51.986;4.662;2022-08-21T07:41:36;101951.78;;;19.02;100.00
38620;BME280;24376;51.986;4.662;2022-08-21T07:44:02;101940.34;;;19.09;100.00
38620;BME280;24376;51.986;4.662;2022-08-21T07:46:28;101925.34;;;19.16;100.00
38620;BME280;24376;51.986;4.662;2022-08-21T07:48:53;101913.94;;;19.30;100.00
38620;BME280;24376;51.986;4.662;2022-08-21T07:51:19;101900.66;;;19.29;100.00
38620;BME280;24376;51.986;4.662;2022-08-21T07:53:52;101875.94;;;19.39;100.00
38620;BME280;24376;51.986;4.662;2022-08-21T07:56:18;101849.38;;;19.42;100.00
38620;BME280;24376;51.986;4.662;2022-08-21T07:58:43;101843.25;;;19.54;100.00
38620;BME280;24376;51.986;4.662;2022-08-21T08:01:09;101828.28;;;19.63;100.00
38620;BME280;24376;51.986;4.662;2022-08-21T08:03:34;101826.56;;;19.72;100.00
38620;BME280;24376;51.986;4.662;2022-08-21T08:05:59;101809.75;;;19.80;100.00
38620;BME280;24376;51.986;4.662;2022-08-21T08:08:25;101796.47;;;19.85;100.00
38620;BME280;24376;51.986;4.662;2022-08-21T08:10:50;101783.22;;;19.96;100.00
38620;BME280;24376;51.986;4.662;2022-08-21T08:13:16;101776.16;;;20.13;100.00
38620;BME280;24376;51.986;4.662;2022-08-21T08:15:41;101816.94;;;20.15;100.00
38620;BME280;24376;51.986;4.662;2022-08-21T08:18:06;101827.59;;;20.33;100.00
38620;BME280;24376;51.986;4.662;2022-08-21T08:20:32;101819.69;;;20.52;100.00
38620;BME280;24376;51.986;4.662;2022-08-21T08:22:57;101801.06;;;20.49;100.00
38620;BME280;24376;51.986;4.662;2022-08-21T08:25:24;101785.97;;;20.80;100.00
38620;BME280;24376;51.986;4.662;2022-08-21T08:27:50;101769.97;;;20.90;100.00
38620;BME280;24376;51.986;4.662;2022-08-21T08:30:16;101745.97;;;21.09;100.00
38620;BME280;24376;51.986;4.662;2022-08-21T08:32:43;101737.06;;;21.20;100.00
38620;BME280;24376;51.986;4.662;2022-08-21T08:35:08;101722.84;;;21.23;100.00
38620;BME280;24376;51.986;4.662;2022-08-21T08:37:34;101690.84;;;21.38;100.00
38620;BME280;24376;51.986;4.662;2022-08-21T08:40:02;101697.03;;;21.45;100.00
38620;BME280;24376;51.986;4.662;2022-08-21T08:42:29;101678.31;;;21.56;100.00
38620;BME280;24376;51.986;4.662;2022-08-21T08:44:56;101666.69;;;21.70;100.00
38620;BME280;24376;51.986;4.662;2022-08-21T08:47:22;101665.72;;;21.79;100.00
38620;BME280;24376;51.986;4.662;2022-08-21T08:49:58;101666.75;;;21.63;100.00
38620;BME280;24376;51.986;4.662;2022-08-21T08:52:28;101684.53;;;21.56;100.00
38620;BME280;24376;51.986;4.662;2022-08-21T08:57:22;101681.84;;;21.64;100.00
38620;BME280;24376;51.986;4.662;2022-08-21T08:59:49;101686.25;;;21.69;100.00
38620;BME280;24376;51.986;4.662;2022-08-21T09:02:15;101675.53;;;21.72;100.00
38620;BME280;24376;51.986;4.662;2022-08-21T09:04:41;101683.50;;;21.77;100.00
38620;BME280;24376;51.986;4.662;2022-08-21T09:10:19;101683.56;;;21.69;100.00
38620;BME280;24376;51.986;4.662;2022-08-21T09:20:22;101687.56;;;22.30;100.00
38620;BME280;24376;51.986;4.662;2022-08-21T09:25:23;101681.84;;;22.70;100.00
38620;BME280;24376;51.986;4.662;2022-08-21T09:27:50;101674.56;;;22.86;100.00
38620;BME280;24376;51.986;4.662;2022-08-21T09:30:15;101673.66;;;22.88;100.00
38620;BME280;24376;51.986;4.662;2022-08-21T09:32:41;101666.25;;;23.15;100.00
38620;BME280;24376;51.986;4.662;2022-08-21T09:37:33;101685.03;;;23.08;100.00
38620;BME280;24376;51.986;4.662;2022-08-21T09:39:59;101676.63;;;23.36;100.00
38620;BME280;24376;51.986;4.662;2022-08-21T09:42:28;101684.41;;;23.53;100.00
38620;BME280;24376;51.986;4.662;2022-08-21T09:45:13;101688.13;;;23.41;100.00
38620;BME280;24376;51.986;4.662;2022-08-21T09:47:40;101685.03;;;23.75;100.00
38620;BME280;24376;51.986;4.662;2022-08-21T09:50:27;101705.78;;;23.56;100.00
38620;BME280;24376;51.986;4.662;2022-08-21T09:52:55;101686.56;;;23.91;100.00
38620;BME280;24376;51.986;4.662;2022-08-21T09:58:34;101618.84;;;24.40;100.00
38620;BME280;24376;51.986;4.662;2022-08-21T10:01:01;101221.34;;;24.21;100.00
38620;BME280;24376;51.986;4.662;2022-08-21T10:03:26;100750.69;;;24.67;100.00
38620;BME280;24376;51.986;4.662;2022-08-21T10:05:54;100450.91;;;24.41;100.00
38620;BME280;24376;51.986;4.662;2022-08-21T10:08:20;100198.16;;;24.26;100.00
38620;BME280;24376;51.986;4.662;2022-08-21T10:10:45;100064.25;;;23.87;100.00
38620;BME280;24376;51.986;4.662;2022-08-21T10:18:12;99615.72;;;22.96;100.00
38620;BME280;24376;51.986;4.662;2022-08-21T10:26:02;99526.41;;;23.03;100.00
38620;BME280;24376;51.986;4.662;2022-08-21T10:33:35;99207.59;;;22.35;100.00
38620;BME280;24376;51.986;4.662;2022-08-21T10:36:13;99199.25;;;22.24;100.00
38620;BME280;24376;51.986;4.662;2022-08-21T10:48:46;99356.75;;;22.58;100.00
38620;BME280;24376;51.986;4.662;2022-08-21T10:56:24;99401.78;;;22.27;100.00
38620;BME280;24376;51.986;4.662;2022-08-21T10:58:50;99604.84;;;22.58;100.00
38620;BME280;24376;51.986;4.662;2022-08-21T11:01:24;99731.22;;;22.78;100.00
38620;BME280;24376;51.986;4.662;2022-08-21T11:04:03;99826.38;;;23.02;100.00
38620;BME280;24376;51.986;4.662;2022-08-21T11:06:31;99776.00;;;22.93;100.00
38620;BME280;24376;51.986;4.662;2022-08-21T11:08:58;99693.25;;;22.71;100.00
38620;BME280;24376;51.986;4.662;2022-08-21T11:11:34;99679.19;;;22.68;100.00
38620;BME280;24376;51.986;4.662;2022-08-21T11:14:03;99752.91;;;22.92;100.00
38620;BME280;24376;51.986;4.662;2022-08-21T11:16:36;99920.66;;;23.47;100.00
38620;BME280;24376;51.986;4.662;2022-08-21T11:19:25;99927.69;;;23.49;100.00
38620;BME280;24376;51.986;4.662;2022-08-21T11:21:48;99758.59;;;23.05;100.00
38620;BME280;24376;51.986;4.662;2022-08-21T11:24:22;99832.41;;;23.28;100.00
38620;BME280;24376;51.986;4.662;2022-08-21T11:26:51;99717.97;;;22.98;100.00
38620;BME280;24376;51.986;4.662;2022-08-21T11:41:51;99693.78;;;23.01;100.00
38620;BME280;24376;51.986;4.662;2022-08-21T11:46:47;99548.50;;;22.46;100.00
38620;BME280;24376;51.986;4.662;2022-08-21T11:51:51;99439.59;;;22.15;100.00
38620;BME280;24376;51.986;4.662;2022-08-21T11:56:51;99413.19;;;22.09;100.00
38620;BME280;24376;51.986;4.662;2022-08-21T12:01:55;99521.75;;;22.27;100.00
38620;BME280;24376;51.986;4.662;2022-08-21T12:04:26;99577.34;;;22.36;100.00
38620;BME280;24376;51.986;4.662;2022-08-21T12:06:53;99560.81;;;22.28;100.00
38620;BME280;24376;51.986;4.662;2022-08-21T12:11:50;99703.31;;;22.65;100.00
38620;BME280;24376;51.986;4.662;2022-08-21T12:14:17;99661.03;;;22.55;100.00
38620;BME280;24376;51.986;4.662;2022-08-21T12:16:44;99610.13;;;22.40;100.00
38620;BME280;24376;51.986;4.662;2022-08-21T12:19:10;99610.03;;;22.41;100.00
38620;BME280;24376;51.986;4.662;2022-08-21T12:21:53;99618.78;;;22.45;100.00
38620;BME280;24376;51.986;4.662;2022-08-21T12:24:30;99678.97;;;22.72;100.00
38620;BME280;24376;51.986;4.662;2022-08-21T12:27:01;99700.63;;;22.87;100.00
38620;BME280;24376;51.986;4.662;2022-08-21T12:29:37;99795.66;;;23.13;100.00
38620;BME280;24376;51.986;4.662;2022-08-21T12:32:04;99656.81;;;22.92;100.00
38620;BME280;24376;51.986;4.662;2022-08-21T12:34:46;99654.56;;;23.03;100.00
38620;BME280;24376;51.986;4.662;2022-08-21T12:37:17;99429.63;;;22.59;100.00
38620;BME280;24376;51.986;4.662;2022-08-21T12:39:46;99410.09;;;22.58;100.00
38620;BME280;24376;51.986;4.662;2022-08-21T12:42:17;99566.78;;;22.96;100.00
38620;BME280;24376;51.986;4.662;2022-08-21T12:44:49;99830.00;;;23.84;100.00
38620;BME280;24376;51.986;4.662;2022-08-21T12:47:29;99938.94;;;24.20;100.00
38620;BME280;24376;51.986;4.662;2022-08-21T12:50:05;99927.75;;;24.10;100.00
38620;BME280;24376;51.986;4.662;2022-08-21T12:52:36;99917.13;;;24.09;100.00
38620;BME280;24376;51.986;4.662;2022-08-21T12:55:04;99691.03;;;23.44;100.00
38620;BME280;24376;51.986;4.662;2022-08-21T12:57:30;99846.44;;;23.75;100.00
38620;BME280;24376;51.986;4.662;2022-08-21T12:59:58;100001.53;;;24.16;100.00
38620;BME280;24376;51.986;4.662;2022-08-21T13:02:34;100192.59;;;24.75;100.00
38620;BME280;24376;51.986;4.662;2022-08-21T13:05:03;99861.25;;;24.03;100.00
38620;BME280;24376;51.986;4.662;2022-08-21T13:07:29;99880.44;;;23.92;100.00
38620;BME280;24376;51.986;4.662;2022-08-21T13:09:58;99855.78;;;23.85;100.00
38620;BME280;24376;51.986;4.662;2022-08-21T13:12:24;99980.38;;;24.10;100.00
38620;BME280;24376;51.986;4.662;2022-08-21T13:14:50;99976.38;;;24.20;100.00
38620;BME280;24376;51.986;4.662;2022-08-21T13:17:17;100257.72;;;24.97;100.00
38620;BME280;24376;51.986;4.662;2022-08-21T13:19:52;100029.28;;;24.35;100.00
38620;BME280;24376;51.986;4.662;2022-08-21T13:22:17;99962.72;;;24.06;100.00
38620;BME280;24376;51.986;4.662;2022-08-21T13:24:42;100187.16;;;24.56;100.00
38620;BME280;24376;51.986;4.662;2022-08-21T13:27:16;100051.09;;;24.25;100.00
38620;BME280;24376;51.986;4.662;2022-08-21T13:29:41;99969.47;;;23.94;100.00
38620;BME280;24376;51.986;4.662;2022-08-21T13:32:07;99923.28;;;23.70;100.00
38620;BME280;24376;51.986;4.662;2022-08-21T13:34:40;99672.56;;;22.98;100.00
38620;BME280;24376;51.986;4.662;2022-08-21T13:37:07;99807.75;;;23.21;100.00
38620;BME280;24376;51.986;4.662;2022-08-21T13:39:33;99919.69;;;23.49;100.00
38620;BME280;24376;51.986;4.662;2022-08-21T13:41:59;100046.59;;;23.83;100.00
38620;BME280;24376;51.986;4.662;2022-08-21T13:44:34;99892.28;;;23.44;100.00
38620;BME280;24376;51.986;4.662;2022-08-21T13:47:00;99835.19;;;23.25;100.00
38620;BME280;24376;51.986;4.662;2022-08-21T13:49:29;99959.53;;;23.54;100.00
38620;BME280;24376;51.986;4.662;2022-08-21T13:51:55;99990.50;;;23.59;100.00
38620;BME280;24376;51.986;4.662;2022-08-21T13:54:25;99966.59;;;23.56;100.00
38620;BME280;24376;51.986;4.662;2022-08-21T13:56:51;100003.72;;;23.64;100.00
38620;BME280;24376;51.986;4.662;2022-08-21T13:59:23;99906.69;;;23.40;100.00
38620;BME280;24376;51.986;4.662;2022-08-21T14:01:51;100002.72;;;23.67;100.00
38620;BME280;24376;51.986;4.662;2022-08-21T14:04:23;100097.16;;;23.89;100.00
38620;BME280;24376;51.986;4.662;2022-08-21T14:06:49;99943.66;;;23.51;100.00
38620;BME280;24376;51.986;4.662;2022-08-21T14:09:26;100018.78;;;23.67;100.00